Messwerte Bagé

Temperatur

Temperatur
°C
1574118000 21.00 21.00 23
1574121600 22.00 22.00 22
1574125200 23.00 23.00 21
1574128800 0.00 0.00 21
1574132400 1.00 1.00 19
1574136000 2.00 2.00 19
1574139600 3.00 3.00 18
1574143200 4.00 4.00 17
1574146800 5.00 5.00 17
1574150400 6.00 6.00 15
1574154000 7.00 7.00 15
1574157600 8.00 8.00 19
1574161200 9.00 9.00 22
1574164800 10.00 10.00 25
1574168400 11.00 11.00 28
1574172000 12.00 12.00 29
1574175600 13.00 13.00
1574179200 14.00 14.00 30
1574182800 15.00 15.00 32
1574186400 16.00 16.00 32
1574190000 17.00 17.00 31
1574193600 18.00 18.00
1574197200 19.00 19.00 29
1574200800 20.00 20.00 27

Aktuellste Messwerte

Wettercharakter
Wetter: meist klar
Temperatur
24 °C
Feuchtigkeit
65 %
Wind
15 km/hWindrichtung: Ost
Luftdruck
1014 hPa
Messzeit: 19. November 2019, 21.00Datenquelle: METAR

Weitere Messstationen in der Nähe

Messstation Temperatur Entfernung
Pelotas - 168 km
Santa Maria 25 °C 187 km
Porto Alegre 23 °C 314 km
Durazno - 315 km
Porto Alegre 24 °C 318 km
Paso de los Libres 27 °C 344 km
Salto - 363 km

Wind

Windrichtung Böen Mittelwind
° km/h km/h
1574118000 21.00 20.00 - 21.00 5
1574121600 22.00 21.00 - 22.00 120° 15
1574125200 23.00 22.00 - 23.00 5
1574128800 0.00 23.00 - 0.00 70° 5
1574132400 1.00 0.00 - 1.00 90° 10
1574136000 2.00 1.00 - 2.00 70° 10
1574139600 3.00 2.00 - 3.00 30° 10
1574143200 4.00 3.00 - 4.00 40° 15
1574146800 5.00 4.00 - 5.00 60° 10
1574150400 6.00 5.00 - 6.00 60° 10
1574154000 7.00 6.00 - 7.00 60° 5
1574157600 8.00 7.00 - 8.00 70° 10
1574161200 9.00 8.00 - 9.00 70° 15
1574164800 10.00 9.00 - 10.00 100° 10
1574168400 11.00 10.00 - 11.00 80° 5
1574172000 12.00 11.00 - 12.00 90° 5
1574175600 13.00 12.00 - 13.00
1574179200 14.00 13.00 - 14.00 160° 10
1574182800 15.00 14.00 - 15.00 120° 10
1574186400 16.00 15.00 - 16.00 140° 20
1574190000 17.00 16.00 - 17.00 130° 10
1574193600 18.00 17.00 - 18.00
1574197200 19.00 18.00 - 19.00 110° 15
1574200800 20.00 19.00 - 20.00 120° 20

Ihre Wetterstation

Fehlt Ihre Wetterstation auf unserem Portal?

Schreiben Sie an network@meteonews.ch

Klima

Wann ist es am wärmsten? Wann regnet es am wenigsten? Unsere Klimadaten geben Auskunft.